Jeppesen Maersk — OWTW2 — position and weather

sailwx.info

Track history (hours):
 
Tides and Currents Weather Stations Pressure Air Temp Water Temp Dewpoint Dewpoint Depression Visibility Wind Speed Wind Dir Waves Ship Positions

Jeppesen Maersk

Last reported at 2015-Aug-28 00:00 UTC. Time now 2015-Sep-05 03:46 UTC.
Position S 00°54' E 107°18'.
Warning: this ship's position is 8 days out of date.

Type: Ship (hazmat cat A). MMSI: 219953000.

Wind from 160 at 18 knots

Waves 0.5 meters (2 feet), 3 second period

Barometer 1011.2 mb
Air temperature 27.8 ° C
Visibility: greater than 5.4 NM
Dewpoint 24.5 ° C
Water temperature 29.0 ° C

Date/timePositionNaut miles runAvg speedWind from/ knotsBaromVisibWave heightAir tempDewpointWater temp
2015-Aug-28 00:00S 00°54' E 107°18'22811.7 160 / 181011.2 5.4 0.527.824.529.0
2015-Aug-27 04:33N 01°15' E 104°10'1312.7
2015-Aug-27 03:33N 01°14' E 103°58'1010.0
2015-Aug-27 02:33N 01°13' E 103°48'5 0.4
2015-Aug-26 14:31N 01°17' E 103°45'0 0.0
2015-Aug-26 13:31N 01°17' E 103°45'0 0.0
2015-Aug-26 12:25N 01°17' E 103°45'0 0.0
2015-Aug-26 11:31N 01°17' E 103°45'0 0.0
2015-Aug-26 10:04N 01°17' E 103°45'0 0.3
2015-Aug-26 09:33N 01°17' E 103°45'5 5.2
2015-Aug-26 08:33N 01°13' E 103°41'8 8.3
2015-Aug-26 07:33N 01°13' E 103°33'3 2.0
2015-Aug-26 06:05N 01°14' E 103°30'6 7.7
2015-Aug-26 05:15N 01°20' E 103°33'7 0.2
2015-Aug-24 22:33N 01°13' E 103°33'6 6.0
2015-Aug-24 21:33N 01°12' E 103°39'7 7.2
2015-Aug-24 20:33N 01°09' E 103°45'8 8.5
2015-Aug-24 19:33N 01°13' E 103°53'1514.6
2015-Aug-24 18:33N 01°16' E 104°07'59512.1
2015-Aug-22 17:25S 04°37' E 112°06'  
2015-Aug-19 06:00S 08°24' E 128°24'   120 / 151012.710.8 1.526.023.127.0
Track history (hours):
 
Tides and Currents Weather Stations Pressure Air Temp Water Temp Dewpoint Dewpoint Depression Visibility Wind Speed Wind Dir Waves Ship Positions

Jeppesen Maersk

Last reported at 2015-Aug-28 00:00 UTC. Time now 2015-Sep-05 03:46 UTC.
Position S 00°54' E 107°18'.
Warning: this ship's position is 8 days out of date.

Type: Ship (hazmat cat A). MMSI: 219953000.

Wind from 160 at 18 knots

Waves 0.5 meters (2 feet), 3 second period

Barometer 1011.2 mb
Air temperature 27.8 ° C
Visibility: greater than 5.4 NM
Dewpoint 24.5 ° C
Water temperature 29.0 ° C

Date/timePositionNaut miles runAvg speedWind from/ knotsBaromVisibWave heightAir tempDewpointWater temp
2015-Aug-28 00:00S 00°54' E 107°18'22811.7 160 / 181011.2 5.4 0.527.824.529.0
2015-Aug-27 04:33N 01°15' E 104°10'1312.7
2015-Aug-27 03:33N 01°14' E 103°58'1010.0
2015-Aug-27 02:33N 01°13' E 103°48'5 0.4
2015-Aug-26 14:31N 01°17' E 103°45'0 0.0
2015-Aug-26 13:31N 01°17' E 103°45'0 0.0
2015-Aug-26 12:25N 01°17' E 103°45'0 0.0
2015-Aug-26 11:31N 01°17' E 103°45'0 0.0
2015-Aug-26 10:04N 01°17' E 103°45'0 0.3
2015-Aug-26 09:33N 01°17' E 103°45'5 5.2
2015-Aug-26 08:33N 01°13' E 103°41'8 8.3
2015-Aug-26 07:33N 01°13' E 103°33'3 2.0
2015-Aug-26 06:05N 01°14' E 103°30'6 7.7
2015-Aug-26 05:15N 01°20' E 103°33'7 0.2
2015-Aug-24 22:33N 01°13' E 103°33'6 6.0
2015-Aug-24 21:33N 01°12' E 103°39'7 7.2
2015-Aug-24 20:33N 01°09' E 103°45'8 8.5
2015-Aug-24 19:33N 01°13' E 103°53'1514.6
2015-Aug-24 18:33N 01°16' E 104°07'59512.1
2015-Aug-22 17:25S 04°37' E 112°06'  
2015-Aug-19 06:00S 08°24' E 128°24'   120 / 151012.710.8 1.526.023.127.0

Dump ship's entire track history